Hauptseite
METAR-TAF:

METAR-TAF

Flughäfen :

Flughafen Vavaʻu

Vavaʻu, Tonga

Breite: 18-35-07S, Länge: 173-57-42W, Höhe: 72 m

Beobachtung

Neuester Wetterbericht von vor 20 Minuten, um 21:00 UTC
Wind 9 kt aus Südost
Temperatur 28°C
Luftfeuchtigkeit 84%
Luftdruck 1015 hPa
Sichtweite 10 km oder mehr
Leicht bewölkt in der Höhe von 900 ft
Aufgelockert bewölkt in der Höhe von 1700 ft

METAR: NFTV 152100Z 14009KT 9999 FEW009 SCT017 28/25 Q1015

Zeit: 10:20 (21:20 UTC)

Prognose

Neuester Wetterbericht von vor 3 Stunden und 57 Minuten, um 17:23 UTC
Gültige Prognose vom 15 um 18 UTC bis 16 um 18 UTC
Wind 8 kt aus Ost
Sichtweite 10 km oder mehr
Leicht bewölkt in der Höhe von 1700 ft

TAF: NFTV 151723Z 1518/1618 10008KT 9999 FEW017

Wetterbeobachtungen und Prognosen von mehr als 4000 Flughäfen (METAR und TAF Bericht).

Die verfügbaren Stationen werden durch gelbe und rote Markierungen auf der Karte dargestellt.

Führen Sie die Maus auf sie, um den Namen der Station zu sehen.

Darauf klicken, um die Beobachtung von Wetterbeobachtungen und Prognosen zu sehen.

Um die Karte zu ändern : klicken Sie auf den grünen Tasten mit einem schwarzen Kreuz Zum Vergrößern, auf den grünen Button mit einem Gedankenstrich zu verkleinern, oder auf die grünen Pfeile für benachbarte Karten.


METAR-TAF: